createdAt,value
2023-04-13T00:02:29.315Z,100.00
2023-04-13T00:07:34.250Z,100.00
2023-04-13T00:12:38.215Z,100.00
2023-04-13T00:17:43.388Z,100.00
2023-04-13T00:22:48.169Z,100.00
2023-04-13T00:27:53.194Z,100.00
2023-04-13T00:32:55.954Z,100.00
2023-04-13T00:37:59.017Z,100.00
2023-04-13T00:43:02.569Z,100.00
2023-04-13T00:48:07.931Z,100.00
2023-04-13T00:53:13.965Z,100.00
2023-04-13T00:58:17.131Z,100.00
2023-04-13T01:03:21.292Z,100.00
2023-04-13T01:08:36.350Z,100.00
2023-04-13T01:13:46.974Z,100.00
2023-04-13T01:18:53.557Z,100.00
2023-04-13T01:24:25.783Z,100.00
2023-04-13T01:29:28.808Z,100.00
2023-04-13T01:34:31.876Z,100.00
2023-04-13T01:39:36.514Z,100.00
2023-04-13T01:44:49.590Z,100.00
2023-04-13T01:50:04.219Z,100.00
2023-04-13T01:55:24.563Z,100.00
2023-04-13T02:00:36.285Z,100.00
2023-04-13T02:05:42.849Z,100.00
2023-04-13T02:10:47.020Z,100.00
2023-04-13T02:15:50.664Z,100.00
2023-04-13T02:21:03.177Z,100.00
2023-04-13T02:26:09.372Z,100.00
2023-04-13T02:31:17.267Z,100.00
2023-04-13T02:36:22.687Z,100.00
2023-04-13T02:41:30.280Z,100.00
2023-04-13T02:46:33.554Z,100.00
2023-04-13T02:51:41.979Z,100.00
2023-04-13T02:56:46.281Z,100.00
2023-04-13T03:01:50.116Z,100.00
2023-04-13T03:06:58.661Z,100.00
2023-04-13T03:12:04.901Z,100.00
2023-04-13T03:17:08.442Z,100.00
2023-04-13T03:22:14.877Z,100.00
2023-04-13T03:27:22.935Z,100.00
2023-04-13T03:32:27.733Z,100.00
2023-04-13T03:37:43.011Z,100.00
2023-04-13T03:42:54.405Z,100.00
2023-04-13T03:47:59.934Z,100.00
2023-04-13T03:53:03.583Z,100.00
2023-04-13T03:58:07.504Z,100.00
2023-04-13T04:03:11.535Z,100.00
2023-04-13T04:08:28.022Z,100.00
2023-04-13T04:13:34.697Z,100.00
2023-04-13T04:18:43.170Z,100.00
2023-04-13T04:23:49.910Z,100.00
2023-04-13T04:28:52.818Z,100.00
2023-04-13T04:33:58.288Z,100.00
2023-04-13T04:39:02.941Z,100.00
2023-04-13T04:44:12.012Z,100.00
2023-04-13T04:49:18.832Z,100.00
2023-04-13T04:54:25.104Z,100.00
2023-04-13T04:59:27.982Z,100.00
2023-04-13T05:04:39.031Z,100.00
2023-04-13T05:09:42.812Z,100.00
2023-04-13T05:14:48.400Z,100.00
2023-04-13T05:19:53.339Z,99.38
2023-04-13T05:25:00.197Z,98.01
2023-04-13T05:30:05.598Z,99.06
2023-04-13T05:35:12.267Z,98.47
2023-04-13T05:40:15.350Z,96.79
2023-04-13T05:45:18.588Z,96.91
2023-04-13T05:51:00.351Z,97.81
2023-04-13T05:56:08.246Z,95.74
2023-04-13T06:01:14.351Z,95.88
2023-04-13T06:06:17.864Z,95.34
2023-04-13T06:11:21.856Z,93.48
2023-04-13T06:16:25.660Z,93.37
2023-04-13T06:21:30.357Z,91.41
2023-04-13T06:26:34.075Z,92.03
2023-04-13T06:31:37.759Z,90.38
2023-04-13T06:36:47.264Z,89.60
2023-04-13T06:41:52.348Z,89.58
2023-04-13T06:47:17.438Z,89.72
2023-04-13T06:52:21.487Z,85.80
2023-04-13T06:57:24.425Z,82.73
2023-04-13T07:02:27.620Z,82.32
2023-04-13T07:07:32.898Z,83.63
2023-04-13T07:12:36.368Z,85.06
2023-04-13T07:17:39.487Z,83.64
2023-04-13T07:22:42.502Z,83.03
2023-04-13T07:27:45.800Z,83.67
2023-04-13T07:32:48.605Z,84.13
2023-04-13T07:37:53.244Z,84.38
2023-04-13T07:42:57.971Z,83.72
2023-04-13T07:48:03.930Z,81.01
2023-04-13T07:53:07.317Z,84.52
2023-04-13T07:58:10.194Z,87.96
2023-04-13T08:03:13.971Z,83.90
2023-04-13T08:08:17.122Z,84.20
2023-04-13T08:13:20.068Z,77.71
2023-04-13T08:18:30.010Z,78.89
2023-04-13T08:23:33.022Z,81.40
2023-04-13T08:28:36.059Z,76.66
2023-04-13T08:33:39.009Z,71.71
2023-04-13T08:38:42.181Z,74.98
2023-04-13T08:43:50.268Z,75.51
2023-04-13T08:48:59.196Z,80.23
2023-04-13T08:54:16.507Z,82.79
2023-04-13T08:59:21.509Z,83.55
2023-04-13T09:04:31.058Z,83.44
2023-04-13T09:09:38.386Z,80.93
2023-04-13T09:14:42.463Z,75.98
2023-04-13T09:19:45.225Z,78.19
2023-04-13T09:24:49.204Z,73.50
2023-04-13T09:29:53.585Z,68.69
2023-04-13T09:35:01.713Z,66.23
2023-04-13T09:40:19.061Z,64.47
2023-04-13T09:45:21.951Z,64.81
2023-04-13T09:50:29.103Z,65.79
2023-04-13T09:55:34.392Z,64.81
2023-04-13T10:00:39.094Z,67.32
2023-04-13T10:05:55.304Z,66.71
2023-04-13T10:11:02.469Z,67.97
2023-04-13T10:16:23.050Z,67.49
2023-04-13T10:21:29.335Z,66.52
2023-04-13T10:26:33.415Z,66.34
2023-04-13T10:31:39.859Z,65.18
2023-04-13T10:36:44.298Z,63.41
2023-04-13T10:41:47.060Z,65.63
2023-04-13T10:46:52.638Z,67.48
2023-04-13T10:51:55.370Z,66.56
2023-04-13T10:57:03.519Z,67.21
2023-04-13T11:02:10.358Z,64.56
2023-04-13T11:07:15.429Z,65.46
2023-04-13T11:12:21.669Z,65.08
2023-04-13T11:17:24.365Z,65.37
2023-04-13T11:22:29.031Z,65.22
2023-04-13T11:27:31.931Z,67.92
2023-04-13T11:32:41.860Z,80.26
2023-04-13T11:37:53.255Z,95.50
2023-04-13T11:42:58.841Z,100.00
2023-04-13T11:48:06.342Z,97.07
2023-04-13T11:53:09.704Z,69.75
2023-04-13T11:58:18.889Z,68.23
2023-04-13T12:08:28.114Z,65.80
2023-04-13T12:13:48.545Z,78.56
2023-04-13T12:19:10.611Z,84.83
2023-04-13T12:24:16.331Z,81.27
2023-04-13T12:29:22.334Z,77.07
2023-04-13T12:34:25.205Z,60.03
2023-04-13T12:39:28.142Z,65.06
2023-04-13T12:44:33.121Z,70.13
2023-04-13T12:49:36.665Z,72.30
2023-04-13T12:54:39.286Z,77.25
2023-04-13T12:59:42.138Z,76.96
2023-04-13T13:04:44.980Z,81.94
2023-04-13T13:09:47.684Z,79.62
2023-04-13T13:14:50.301Z,80.19
2023-04-13T13:19:53.199Z,83.74
2023-04-13T13:24:55.789Z,87.36
2023-04-13T13:29:58.616Z,89.80
2023-04-13T13:35:01.669Z,82.56
2023-04-13T13:40:13.221Z,73.63
2023-04-13T13:45:16.245Z,75.13
2023-04-13T13:50:19.093Z,78.63
2023-04-13T13:55:23.616Z,75.82
2023-04-13T14:00:27.362Z,75.60
2023-04-13T14:05:30.091Z,81.42
2023-04-13T14:10:32.824Z,78.53
2023-04-13T14:15:35.631Z,78.73
2023-04-13T14:20:39.575Z,72.47
2023-04-13T14:25:42.981Z,70.83
2023-04-13T14:30:46.236Z,72.04
2023-04-13T14:35:49.080Z,69.82
2023-04-13T14:40:52.095Z,73.05
2023-04-13T14:45:55.342Z,74.00
2023-04-13T14:50:58.181Z,71.94
2023-04-13T14:56:01.121Z,71.08
2023-04-13T15:01:04.909Z,80.18
2023-04-13T15:06:08.603Z,83.61
2023-04-13T15:11:15.029Z,86.58
2023-04-13T15:16:18.810Z,88.47
2023-04-13T15:21:22.387Z,87.37
2023-04-13T15:26:25.162Z,86.94
2023-04-13T15:31:27.791Z,88.16
2023-04-13T15:36:30.962Z,88.43
2023-04-13T15:41:33.512Z,94.03
2023-04-13T15:46:37.402Z,91.89
2023-04-13T15:51:40.247Z,92.66
2023-04-13T15:56:44.592Z,94.85
2023-04-13T16:01:49.371Z,91.42
2023-04-13T16:07:04.886Z,91.77
2023-04-13T16:12:17.883Z,89.65
2023-04-13T16:17:31.369Z,87.35
2023-04-13T16:22:35.622Z,90.35
2023-04-13T16:27:40.182Z,89.63
2023-04-13T16:32:46.995Z,93.17
2023-04-13T16:37:52.224Z,94.89
2023-04-13T16:42:54.772Z,98.92
2023-04-13T16:47:57.441Z,97.33
2023-04-13T16:53:00.191Z,94.78
2023-04-13T16:58:02.861Z,97.38
2023-04-13T17:03:05.659Z,96.46
2023-04-13T17:08:08.883Z,98.10
2023-04-13T17:13:11.474Z,100.00
2023-04-13T17:18:15.645Z,93.84
2023-04-13T17:23:18.324Z,94.59
2023-04-13T17:28:23.395Z,93.12
2023-04-13T17:33:28.307Z,94.09
2023-04-13T17:38:31.049Z,97.79
2023-04-13T17:43:33.844Z,99.94
2023-04-13T17:48:36.637Z,99.85
2023-04-13T17:53:39.349Z,93.71
2023-04-13T17:58:42.308Z,94.80
2023-04-13T18:03:45.259Z,93.38
2023-04-13T18:08:48.135Z,92.18
2023-04-13T18:13:50.970Z,94.35
2023-04-13T18:18:53.778Z,96.64
2023-04-13T18:23:57.138Z,96.49
2023-04-13T18:29:00.048Z,99.92
2023-04-13T18:34:02.688Z,100.00
2023-04-13T18:39:05.441Z,100.00
2023-04-13T18:44:08.230Z,100.00
2023-04-13T18:49:10.939Z,100.00
2023-04-13T18:54:13.696Z,97.96
2023-04-13T18:59:16.585Z,98.51
2023-04-13T19:04:19.449Z,100.00
2023-04-13T19:09:22.144Z,100.00
2023-04-13T19:14:24.722Z,98.58
2023-04-13T19:19:27.617Z,100.00
2023-04-13T19:24:30.509Z,100.00
2023-04-13T19:29:34.360Z,99.88
2023-04-13T19:34:37.102Z,97.20
2023-04-13T19:39:39.842Z,93.33
2023-04-13T19:44:42.623Z,92.62
2023-04-13T19:49:45.776Z,92.01
2023-04-13T19:54:48.370Z,92.51
2023-04-13T19:59:51.536Z,92.05
2023-04-13T20:04:54.855Z,96.15
2023-04-13T20:10:00.168Z,96.36
2023-04-13T20:15:03.958Z,91.74
2023-04-13T20:20:07.576Z,97.45
2023-04-13T20:25:11.332Z,97.67
2023-04-13T20:30:14.133Z,99.29
2023-04-13T20:35:17.217Z,99.76
2023-04-13T20:40:27.004Z,95.88
2023-04-13T20:45:30.248Z,95.56
2023-04-13T20:50:33.942Z,96.53
2023-04-13T20:55:37.255Z,96.48
2023-04-13T21:00:41.274Z,96.89
2023-04-13T21:05:43.937Z,95.85
2023-04-13T21:10:47.144Z,94.79
2023-04-13T21:15:49.770Z,96.11
2023-04-13T21:20:52.560Z,94.79
2023-04-13T21:25:55.138Z,94.26
2023-04-13T21:30:57.809Z,94.37
2023-04-13T21:36:51.313Z,93.64
2023-04-13T21:41:23.168Z,94.95
2023-04-13T21:46:26.230Z,94.98
2023-04-13T21:51:29.045Z,93.74
2023-04-13T21:56:32.495Z,96.58
2023-04-13T22:01:35.161Z,94.49
2023-04-13T22:06:37.738Z,94.88
2023-04-13T22:11:40.914Z,96.74
2023-04-13T22:16:44.005Z,98.64
2023-04-13T22:21:46.840Z,100.00
2023-04-13T22:26:49.858Z,98.82
2023-04-13T22:31:52.480Z,96.09
2023-04-13T22:36:55.461Z,93.16
2023-04-13T22:41:59.013Z,92.91
2023-04-13T22:47:02.860Z,92.45
2023-04-13T22:52:06.502Z,93.78
2023-04-13T22:57:09.031Z,93.42
2023-04-13T23:02:12.197Z,92.48
2023-04-13T23:07:14.908Z,90.98
2023-04-13T23:12:17.440Z,92.61
2023-04-13T23:17:20.182Z,91.09
2023-04-13T23:22:22.966Z,93.52
2023-04-13T23:27:26.127Z,92.10
2023-04-13T23:32:28.677Z,90.44
2023-04-13T23:37:31.408Z,86.45
2023-04-13T23:42:34.213Z,89.53
2023-04-13T23:47:36.775Z,91.62
2023-04-13T23:52:39.350Z,90.84
2023-04-13T23:57:42.155Z,89.94
